Time,TemperatureF,DewpointF,PressureIn,WindDirection,WindDirectionDegrees,WindSpeedMPH,WindSpeedGustMPH,Humidity,HourlyPrecipIn,Conditions,Clouds,dailyrainin,SoftwareType,DateUTC
2013-01-19 00:02:00,38.0,19.0,26.52,NNW,327,1.0,5.0,46,0.00,,,0.00,,2013-01-19 07:02:00,
2013-01-19 00:12:00,38.0,19.0,26.52,NNW,327,1.0,5.0,46,0.00,,,0.00,,2013-01-19 07:12:00,
2013-01-19 00:22:00,39.0,18.0,26.52,NW,319,3.0,6.0,43,0.00,,,0.00,,2013-01-19 07:22:00,
2013-01-19 00:32:00,39.0,19.0,26.53,NW,313,1.0,5.0,44,0.00,,,0.00,,2013-01-19 07:32:00,
2013-01-19 00:42:00,39.0,19.0,26.53,NW,313,1.0,5.0,44,0.00,,,0.00,,2013-01-19 07:42:00,
2013-01-19 00:52:00,37.0,18.0,26.54,NW,311,4.0,6.0,46,0.00,,,0.00,,2013-01-19 07:52:00,
2013-01-19 01:02:00,36.0,18.0,26.54,NW,310,1.0,6.0,48,0.00,,,0.00,,2013-01-19 08:02:00,
2013-01-19 01:12:00,36.0,18.0,26.54,NW,310,1.0,6.0,48,0.00,,,0.00,,2013-01-19 08:12:00,
2013-01-19 01:22:00,37.0,19.0,26.54,NW,320,4.0,6.0,47,0.00,,,0.00,,2013-01-19 08:22:00,
2013-01-19 01:32:00,36.0,18.0,26.56,NW,321,2.0,4.0,47,0.00,,,0.00,,2013-01-19 08:32:00,
2013-01-19 01:43:00,36.0,18.0,26.56,NW,321,2.0,4.0,47,0.00,,,0.00,,2013-01-19 08:43:00,
2013-01-19 01:53:00,37.0,20.0,26.56,West,279,6.0,9.0,49,0.00,,,0.00,,2013-01-19 08:53:00,
2013-01-19 02:02:00,39.0,18.0,26.57,WNW,294,2.0,9.0,43,0.00,,,0.00,,2013-01-19 09:02:00,
2013-01-19 02:12:00,39.0,18.0,26.57,WNW,294,2.0,9.0,43,0.00,,,0.00,,2013-01-19 09:12:00,
2013-01-19 02:22:00,37.0,18.0,26.57,WNW,300,1.0,4.0,46,0.00,,,0.00,,2013-01-19 09:22:00,
2013-01-19 02:32:00,36.0,17.0,26.57,NW,304,4.0,6.0,46,0.00,,,0.00,,2013-01-19 09:32:00,
2013-01-19 02:42:00,36.0,17.0,26.57,NW,304,4.0,6.0,46,0.00,,,0.00,,2013-01-19 09:42:00,
2013-01-19 02:53:00,37.0,18.0,26.57,WNW,303,1.0,8.0,45,0.00,,,0.00,,2013-01-19 09:53:00,
2013-01-19 03:02:00,36.0,18.0,26.58,NW,326,2.0,5.0,47,0.00,,,0.00,,2013-01-19 10:02:00,
2013-01-19 03:12:00,36.0,18.0,26.58,NW,326,2.0,5.0,47,0.00,,,0.00,,2013-01-19 10:12:00,
2013-01-19 03:22:00,35.0,17.0,26.58,NW,326,2.0,5.0,48,0.00,,,0.00,,2013-01-19 10:22:00,
2013-01-19 03:32:00,36.0,18.0,26.58,WNW,284,6.0,8.0,47,0.00,,,0.00,,2013-01-19 10:32:00,
2013-01-19 03:42:00,36.0,18.0,26.58,WNW,284,6.0,8.0,47,0.00,,,0.00,,2013-01-19 10:42:00,
2013-01-19 03:53:00,36.0,17.0,26.58,WNW,286,4.0,7.0,46,0.00,,,0.00,,2013-01-19 10:53:00,
2013-01-19 04:02:00,35.0,17.0,26.59,West,273,7.0,10.0,48,0.00,,,0.00,,2013-01-19 11:02:00,
2013-01-19 04:12:00,35.0,17.0,26.59,West,273,7.0,10.0,48,0.00,,,0.00,,2013-01-19 11:12:00,
2013-01-19 05:48:00,35.0,18.0,26.59,West,275,0.0,4.0,49,0.00,,,0.00,,2013-01-19 12:48:00,
2013-01-19 06:03:00,33.0,18.0,26.61,WNW,288,0.0,5.0,53,0.00,,,0.00,,2013-01-19 13:03:00,
2013-01-19 06:12:00,33.0,18.0,26.61,WNW,288,0.0,5.0,53,0.00,,,0.00,,2013-01-19 13:12:00,
2013-01-19 06:22:00,34.0,18.0,26.62,WNW,299,2.0,5.0,52,0.00,,,0.00,,2013-01-19 13:22:00,
2013-01-19 06:33:00,36.0,18.0,26.62,NW,317,2.0,8.0,48,0.00,,,0.00,,2013-01-19 13:33:00,
2013-01-19 06:42:00,36.0,18.0,26.62,NW,317,2.0,8.0,48,0.00,,,0.00,,2013-01-19 13:42:00,
2013-01-19 06:53:00,41.0,19.0,26.62,NNW,346,9.0,13.0,40,0.00,,,0.00,,2013-01-19 13:53:00,
2013-01-19 07:02:00,44.0,19.0,26.63,NNW,333,10.0,16.0,36,0.00,,,0.00,,2013-01-19 14:02:00,
2013-01-19 07:12:00,44.0,19.0,26.63,NNW,333,10.0,16.0,36,0.00,,,0.00,,2013-01-19 14:12:00,
2013-01-19 07:23:00,45.0,19.0,26.63,NW,325,9.0,16.0,35,0.00,,,0.00,,2013-01-19 14:23:00,
2013-01-19 07:33:00,44.0,19.0,26.64,WNW,294,9.0,15.0,36,0.00,,,0.00,,2013-01-19 14:33:00,
2013-01-19 07:43:00,44.0,19.0,26.64,WNW,294,9.0,15.0,36,0.00,,,0.00,,2013-01-19 14:43:00,
2013-01-19 07:53:00,44.0,19.0,26.64,NW,316,11.0,16.0,36,0.00,,,0.00,,2013-01-19 14:53:00,
2013-01-19 08:03:00,43.0,19.0,26.64,NNW,338,9.0,13.0,37,0.00,,,0.00,,2013-01-19 15:03:00,
2013-01-19 08:12:00,43.0,19.0,26.64,NNW,338,9.0,13.0,37,0.00,,,0.00,,2013-01-19 15:12:00,
2013-01-19 08:23:00,44.0,19.0,26.65,NW,318,9.0,14.0,37,0.00,,,0.00,,2013-01-19 15:23:00,
2013-01-19 08:33:00,44.0,19.0,26.66,NW,321,7.0,13.0,36,0.00,,,0.00,,2013-01-19 15:33:00,
2013-01-19 08:43:00,44.0,19.0,26.66,NW,321,7.0,13.0,36,0.00,,,0.00,,2013-01-19 15:43:00,
2013-01-19 08:53:00,45.0,20.0,26.67,NNW,334,8.0,13.0,36,0.00,,,0.00,,2013-01-19 15:53:00,
2013-01-19 09:03:00,43.0,19.0,26.67,North,5,7.0,10.0,38,0.00,,,0.00,,2013-01-19 16:03:00,
2013-01-19 09:13:00,43.0,19.0,26.67,North,5,7.0,10.0,38,0.00,,,0.00,,2013-01-19 16:13:00,
2013-01-19 09:23:00,43.0,20.0,26.68,NW,326,5.0,11.0,39,0.00,,,0.00,,2013-01-19 16:23:00,
2013-01-19 09:33:00,44.0,20.0,26.69,NNE,14,7.0,10.0,38,0.00,,,0.00,,2013-01-19 16:33:00,
2013-01-19 09:43:00,44.0,20.0,26.69,NNE,14,7.0,10.0,38,0.00,,,0.00,,2013-01-19 16:43:00,
2013-01-19 09:54:00,44.0,21.0,26.70,NE,37,11.0,15.0,39,0.00,,,0.00,,2013-01-19 16:54:00,
2013-01-19 10:02:00,43.0,20.0,26.71,NNE,27,12.0,16.0,40,0.00,,,0.00,,2013-01-19 17:02:00,
2013-01-19 10:18:00,43.0,20.0,26.71,NNE,27,12.0,16.0,40,0.00,,,0.00,,2013-01-19 17:18:00,
2013-01-19 10:28:00,42.0,21.0,26.72,NE,34,13.0,20.0,43,0.00,,,0.00,,2013-01-19 17:28:00,
2013-01-19 10:35:00,41.0,21.0,26.73,NE,49,16.0,24.0,45,0.00,,,0.00,,2013-01-19 17:35:00,
2013-01-19 10:47:00,41.0,21.0,26.73,NE,49,16.0,24.0,45,0.00,,,0.00,,2013-01-19 17:47:00,
2013-01-19 10:54:00,41.0,22.0,26.73,NE,40,14.0,28.0,46,0.00,,,0.00,,2013-01-19 17:54:00,
2013-01-19 11:09:00,41.0,22.0,26.73,North,355,14.0,25.0,47,0.00,,,0.00,,2013-01-19 18:09:00,
2013-01-19 11:25:00,41.0,22.0,26.73,North,5,17.0,26.0,47,0.00,,,0.00,,2013-01-19 18:25:00,
2013-01-19 11:34:00,42.0,23.0,26.73,NNE,17,17.0,25.0,47,0.00,,,0.00,,2013-01-19 18:34:00,
2013-01-19 11:45:00,42.0,23.0,26.73,NNE,17,17.0,25.0,47,0.00,,,0.00,,2013-01-19 18:45:00,
2013-01-19 12:07:00,42.0,23.0,26.74,NNE,13,11.0,27.0,47,0.00,,,0.00,,2013-01-19 19:07:00,
2013-01-19 12:19:00,42.0,23.0,26.74,NNE,13,11.0,27.0,47,0.00,,,0.00,,2013-01-19 19:19:00,
2013-01-19 12:29:00,42.0,23.0,26.74,North,10,11.0,21.0,47,0.00,,,0.00,,2013-01-19 19:29:00,
2013-01-19 12:38:00,42.0,23.0,26.74,WNW,287,12.0,24.0,46,0.00,,,0.00,,2013-01-19 19:38:00,
2013-01-19 12:45:00,42.0,23.0,26.74,WNW,287,12.0,24.0,46,0.00,,,0.00,,2013-01-19 19:45:00,
2013-01-19 12:57:00,42.0,23.0,26.74,North,360,16.0,30.0,47,0.00,,,0.00,,2013-01-19 19:57:00,
2013-01-19 13:09:00,41.0,23.0,26.74,NNW,346,14.0,28.0,48,0.00,,,0.00,,2013-01-19 20:09:00,
2013-01-19 13:18:00,41.0,23.0,26.74,NNW,346,14.0,28.0,48,0.00,,,0.00,,2013-01-19 20:18:00,
2013-01-19 13:25:00,41.0,23.0,26.74,NE,34,15.0,24.0,48,0.00,,,0.00,,2013-01-19 20:25:00,
2013-01-19 13:58:00,42.0,24.0,26.75,NNE,27,14.0,29.0,48,0.00,,,0.00,,2013-01-19 20:58:00,
2013-01-19 14:05:00,42.0,24.0,26.75,ENE,68,14.0,27.0,48,0.00,,,0.00,,2013-01-19 21:05:00,
2013-01-19 14:14:00,42.0,24.0,26.75,ENE,68,14.0,27.0,48,0.00,,,0.00,,2013-01-19 21:14:00,
2013-01-19 15:26:00,39.0,23.0,26.78,NE,38,15.0,26.0,53,0.00,,,0.00,,2013-01-19 22:26:00,
2013-01-19 15:34:00,38.0,23.0,26.78,NE,48,17.0,26.0,54,0.00,,,0.00,,2013-01-19 22:34:00,
2013-01-19 15:46:00,38.0,23.0,26.78,NE,48,17.0,26.0,54,0.00,,,0.00,,2013-01-19 22:46:00,
2013-01-19 15:58:00,38.0,23.0,26.78,NE,48,17.0,26.0,54,0.00,,,0.00,,2013-01-19 22:58:00,
2013-01-19 16:25:00,36.0,21.0,26.80,NE,52,15.0,25.0,53,0.00,,,0.00,,2013-01-19 23:25:00,
2013-01-19 16:34:00,36.0,21.0,26.80,NW,325,12.0,22.0,54,0.00,,,0.00,,2013-01-19 23:34:00,
2013-01-19 16:45:00,36.0,21.0,26.80,NW,325,12.0,22.0,54,0.00,,,0.00,,2013-01-19 23:45:00,
2013-01-19 17:07:00,34.0,20.0,26.80,NE,36,11.0,18.0,56,0.00,,,0.00,,2013-01-20 00:07:00,
2013-01-19 17:15:00,34.0,21.0,26.80,NE,38,12.0,20.0,58,0.00,,,0.00,,2013-01-20 00:15:00,
2013-01-19 17:25:00,33.0,20.0,26.80,East,100,13.0,22.0,59,0.00,,,0.00,,2013-01-20 00:25:00,
2013-01-19 17:35:00,33.0,21.0,26.81,NNE,24,14.0,22.0,60,0.00,,,0.00,,2013-01-20 00:35:00,
2013-01-19 17:56:00,32.0,20.0,26.81,NE,43,6.0,14.0,61,0.00,,,0.00,,2013-01-20 00:56:00,
2013-01-19 18:03:00,32.0,20.0,26.81,NNE,30,8.0,13.0,62,0.00,,,0.00,,2013-01-20 01:03:00,
2013-01-19 18:19:00,32.0,20.0,26.81,NNE,30,8.0,13.0,62,0.00,,,0.00,,2013-01-20 01:19:00,
2013-01-19 18:25:00,32.0,20.0,26.81,NNE,17,7.0,10.0,62,0.00,,,0.00,,2013-01-20 01:25:00,
2013-01-19 18:35:00,31.0,20.0,26.81,NNE,16,5.0,9.0,62,0.00,,,0.00,,2013-01-20 01:35:00,
2013-01-19 18:45:00,31.0,20.0,26.81,NNE,16,5.0,9.0,62,0.00,,,0.00,,2013-01-20 01:45:00,
2013-01-19 19:03:00,31.0,19.0,26.81,NNE,19,7.0,12.0,61,0.00,,,0.00,,2013-01-20 02:03:00,
2013-01-19 19:14:00,28.0,17.0,26.81,NE,38,5.0,9.0,63,0.00,,,0.00,,2013-01-20 02:14:00,
2013-01-19 19:25:00,27.0,17.0,26.81,NE,45,0.0,4.0,65,0.00,,,0.00,,2013-01-20 02:25:00,
2013-01-19 19:35:00,27.0,17.0,26.81,NE,45,1.0,4.0,66,0.00,,,0.00,,2013-01-20 02:35:00,
2013-01-19 19:44:00,27.0,17.0,26.81,NE,45,1.0,4.0,66,0.00,,,0.00,,2013-01-20 02:44:00,
2013-01-19 19:58:00,27.0,18.0,26.81,ENE,61,4.0,6.0,67,0.00,,,0.00,,2013-01-20 02:58:00,
2013-01-19 20:07:00,27.0,18.0,26.81,ENE,61,1.0,2.0,67,0.00,,,0.00,,2013-01-20 03:07:00,
2013-01-19 20:14:00,27.0,18.0,26.81,ENE,61,1.0,2.0,67,0.00,,,0.00,,2013-01-20 03:14:00,
2013-01-19 20:24:00,27.0,18.0,26.81,East,82,1.0,7.0,67,0.00,,,0.00,,2013-01-20 03:24:00,
2013-01-19 20:37:00,27.0,18.0,26.81,East,88,6.0,9.0,68,0.00,,,0.00,,2013-01-20 03:37:00,
2013-01-19 20:45:00,27.0,18.0,26.81,East,88,6.0,9.0,68,0.00,,,0.00,,2013-01-20 03:45:00,
2013-01-19 20:57:00,27.0,18.0,26.81,ESE,117,4.0,7.0,69,0.00,,,0.00,,2013-01-20 03:57:00,
2013-01-19 21:04:00,26.0,18.0,26.81,East,96,7.0,9.0,70,0.00,,,0.00,,2013-01-20 04:04:00,
2013-01-19 21:14:00,26.0,18.0,26.81,East,96,7.0,9.0,70,0.00,,,0.00,,2013-01-20 04:14:00,
2013-01-19 21:25:00,25.0,18.0,26.80,ESE,120,8.0,12.0,73,0.00,,,0.00,,2013-01-20 04:25:00,
2013-01-19 21:35:00,25.0,19.0,26.79,SE,130,6.0,11.0,76,0.00,,,0.00,,2013-01-20 04:35:00,
2013-01-19 21:44:00,25.0,19.0,26.79,SE,130,6.0,11.0,76,0.00,,,0.00,,2013-01-20 04:44:00,
2013-01-19 21:57:00,25.0,19.0,26.79,SE,134,4.0,9.0,77,0.00,,,0.00,,2013-01-20 04:57:00,
2013-01-19 22:03:00,25.0,19.0,26.78,SSE,155,4.0,8.0,76,0.00,,,0.00,,2013-01-20 05:03:00,
2013-01-19 22:12:00,25.0,19.0,26.78,SSE,155,4.0,8.0,76,0.00,,,0.00,,2013-01-20 05:12:00,
2013-01-19 22:22:00,25.0,19.0,26.78,SSE,153,5.0,10.0,77,0.00,,,0.00,,2013-01-20 05:22:00,
2013-01-19 22:32:00,25.0,19.0,26.77,ESE,119,8.0,10.0,77,0.00,,,0.00,,2013-01-20 05:32:00,
2013-01-19 22:42:00,25.0,19.0,26.77,ESE,119,8.0,10.0,77,0.00,,,0.00,,2013-01-20 05:42:00,
2013-01-19 22:53:00,23.0,17.0,26.76,ESE,121,5.0,10.0,79,0.00,,,0.00,,2013-01-20 05:53:00,
2013-01-19 23:02:00,23.0,18.0,26.75,SE,142,5.0,12.0,80,0.00,,,0.00,,2013-01-20 06:02:00,
2013-01-19 23:12:00,23.0,18.0,26.75,SE,142,5.0,12.0,80,0.00,,,0.00,,2013-01-20 06:12:00,
2013-01-19 23:22:00,22.0,17.0,26.74,SSE,155,7.0,12.0,81,0.00,,,0.00,,2013-01-20 06:22:00,
2013-01-19 23:33:00,22.0,17.0,26.74,ESE,119,9.0,14.0,82,0.00,,,0.00,,2013-01-20 06:33:00,
2013-01-19 23:42:00,22.0,17.0,26.74,ESE,119,9.0,14.0,82,0.00,,,0.00,,2013-01-20 06:42:00,
2013-01-19 23:53:00,22.0,18.0,26.73,ESE,118,8.0,11.0,83,0.00,,,0.00,,2013-01-20 06:53:00,